sensor_id;sensor_type;location;lat;lon;timestamp;temperature;humidity
40808;DHT22;26523;52.504;13.498;2023-07-30T00:02:19;16.80;99.90
40808;DHT22;26523;52.504;13.498;2023-07-30T00:04:45;16.80;99.90
40808;DHT22;26523;52.504;13.498;2023-07-30T00:07:11;16.80;99.90
40808;DHT22;26523;52.504;13.498;2023-07-30T00:09:38;16.80;99.90
40808;DHT22;26523;52.504;13.498;2023-07-30T00:12:05;16.80;99.90
40808;DHT22;26523;52.504;13.498;2023-07-30T00:14:31;16.80;99.90
40808;DHT22;26523;52.504;13.498;2023-07-30T00:16:56;16.70;99.90
40808;DHT22;26523;52.504;13.498;2023-07-30T00:19:22;16.70;99.90
40808;DHT22;26523;52.504;13.498;2023-07-30T00:21:48;16.70;99.90
40808;DHT22;26523;52.504;13.498;2023-07-30T00:24:13;16.70;99.90
40808;DHT22;26523;52.504;13.498;2023-07-30T00:26:39;16.60;99.90
40808;DHT22;26523;52.504;13.498;2023-07-30T00:29:04;16.60;99.90
40808;DHT22;26523;52.504;13.498;2023-07-30T00:31:30;16.50;99.90
40808;DHT22;26523;52.504;13.498;2023-07-30T00:33:56;16.50;99.90
40808;DHT22;26523;52.504;13.498;2023-07-30T00:36:22;16.50;99.90
40808;DHT22;26523;52.504;13.498;2023-07-30T00:38:47;16.40;99.90
40808;DHT22;26523;52.504;13.498;2023-07-30T00:41:13;16.40;99.90
40808;DHT22;26523;52.504;13.498;2023-07-30T00:43:38;16.40;99.90
40808;DHT22;26523;52.504;13.498;2023-07-30T00:46:05;16.40;99.90
40808;DHT22;26523;52.504;13.498;2023-07-30T00:48:32;16.40;99.90
40808;DHT22;26523;52.504;13.498;2023-07-30T00:50:58;16.40;99.90
40808;DHT22;26523;52.504;13.498;2023-07-30T00:53:26;16.30;99.90
40808;DHT22;26523;52.504;13.498;2023-07-30T00:55:53;16.30;99.90
40808;DHT22;26523;52.504;13.498;2023-07-30T00:58:20;16.20;99.90
40808;DHT22;26523;52.504;13.498;2023-07-30T01:00:47;16.20;99.90
40808;DHT22;26523;52.504;13.498;2023-07-30T01:03:13;16.10;99.90
40808;DHT22;26523;52.504;13.498;2023-07-30T01:05:38;16.10;99.90
40808;DHT22;26523;52.504;13.498;2023-07-30T01:08:04;16.00;99.90
40808;DHT22;26523;52.504;13.498;2023-07-30T01:10:31;16.00;99.90
40808;DHT22;26523;52.504;13.498;2023-07-30T01:13:02;16.00;99.90
40808;DHT22;26523;52.504;13.498;2023-07-30T01:15:28;16.00;99.90
40808;DHT22;26523;52.504;13.498;2023-07-30T01:17:55;16.00;99.90
40808;DHT22;26523;52.504;13.498;2023-07-30T01:20:21;16.00;99.90
40808;DHT22;26523;52.504;13.498;2023-07-30T01:22:47;16.00;99.90
40808;DHT22;26523;52.504;13.498;2023-07-30T01:25:13;16.00;99.90
40808;DHT22;26523;52.504;13.498;2023-07-30T01:27:41;16.00;99.90
40808;DHT22;26523;52.504;13.498;2023-07-30T01:30:26;15.90;99.90
40808;DHT22;26523;52.504;13.498;2023-07-30T01:32:52;16.00;99.90
40808;DHT22;26523;52.504;13.498;2023-07-30T01:35:24;15.90;99.90
40808;DHT22;26523;52.504;13.498;2023-07-30T01:37:51;15.90;99.90
40808;DHT22;26523;52.504;13.498;2023-07-30T01:40:17;15.90;99.90
40808;DHT22;26523;52.504;13.498;2023-07-30T01:42:43;15.80;99.90
40808;DHT22;26523;52.504;13.498;2023-07-30T01:45:09;15.80;99.90
40808;DHT22;26523;52.504;13.498;2023-07-30T01:47:34;15.70;99.90
40808;DHT22;26523;52.504;13.498;2023-07-30T01:50:00;15.80;99.90
40808;DHT22;26523;52.504;13.498;2023-07-30T01:52:26;15.70;99.90
40808;DHT22;26523;52.504;13.498;2023-07-30T01:54:51;15.70;99.90
40808;DHT22;26523;52.504;13.498;2023-07-30T01:57:17;15.70;99.90
40808;DHT22;26523;52.504;13.498;2023-07-30T01:59:43;15.70;99.90
40808;DHT22;26523;52.504;13.498;2023-07-30T02:02:09;15.60;99.90
40808;DHT22;26523;52.504;13.498;2023-07-30T02:04:34;15.60;99.90
40808;DHT22;26523;52.504;13.498;2023-07-30T02:07:00;15.50;99.90
40808;DHT22;26523;52.504;13.498;2023-07-30T02:09:25;15.50;99.90
40808;DHT22;26523;52.504;13.498;2023-07-30T02:11:51;15.40;99.90
40808;DHT22;26523;52.504;13.498;2023-07-30T02:14:18;15.40;99.90
40808;DHT22;26523;52.504;13.498;2023-07-30T02:16:44;15.40;99.90
40808;DHT22;26523;52.504;13.498;2023-07-30T02:19:10;15.40;99.90
40808;DHT22;26523;52.504;13.498;2023-07-30T02:21:35;15.40;99.90
40808;DHT22;26523;52.504;13.498;2023-07-30T02:24:04;15.40;99.90
40808;DHT22;26523;52.504;13.498;2023-07-30T02:26:35;15.40;99.90
40808;DHT22;26523;52.504;13.498;2023-07-30T02:29:01;15.30;99.90
40808;DHT22;26523;52.504;13.498;2023-07-30T02:31:26;15.40;99.90
40808;DHT22;26523;52.504;13.498;2023-07-30T02:33:52;15.40;99.90
40808;DHT22;26523;52.504;13.498;2023-07-30T02:36:18;15.40;99.90
40808;DHT22;26523;52.504;13.498;2023-07-30T02:38:43;15.40;99.90
40808;DHT22;26523;52.504;13.498;2023-07-30T02:41:09;15.30;99.90
40808;DHT22;26523;52.504;13.498;2023-07-30T02:43:34;15.30;99.90
40808;DHT22;26523;52.504;13.498;2023-07-30T02:46:00;15.40;99.90
40808;DHT22;26523;52.504;13.498;2023-07-30T02:48:26;15.40;99.90
40808;DHT22;26523;52.504;13.498;2023-07-30T02:50:54;15.40;99.90
40808;DHT22;26523;52.504;13.498;2023-07-30T02:53:20;15.40;99.90
40808;DHT22;26523;52.504;13.498;2023-07-30T02:55:45;15.40;99.90
40808;DHT22;26523;52.504;13.498;2023-07-30T02:58:11;15.40;99.90
40808;DHT22;26523;52.504;13.498;2023-07-30T03:00:37;15.40;99.90
40808;DHT22;26523;52.504;13.498;2023-07-30T03:03:03;15.40;99.90
40808;DHT22;26523;52.504;13.498;2023-07-30T03:05:28;15.40;99.90
40808;DHT22;26523;52.504;13.498;2023-07-30T03:07:54;15.40;99.90
40808;DHT22;26523;52.504;13.498;2023-07-30T03:10:20;15.40;99.90
40808;DHT22;26523;52.504;13.498;2023-07-30T03:12:45;15.40;99.90
40808;DHT22;26523;52.504;13.498;2023-07-30T03:15:11;15.30;99.90
40808;DHT22;26523;52.504;13.498;2023-07-30T03:17:37;15.30;99.90
40808;DHT22;26523;52.504;13.498;2023-07-30T03:20:03;15.30;99.90
40808;DHT22;26523;52.504;13.498;2023-07-30T03:22:29;15.20;99.90
40808;DHT22;26523;52.504;13.498;2023-07-30T03:24:55;15.20;99.90
40808;DHT22;26523;52.504;13.498;2023-07-30T03:27:20;15.20;99.90
40808;DHT22;26523;52.504;13.498;2023-07-30T03:29:46;15.30;99.90
40808;DHT22;26523;52.504;13.498;2023-07-30T03:32:12;15.30;99.90
40808;DHT22;26523;52.504;13.498;2023-07-30T03:34:37;15.30;99.90
40808;DHT22;26523;52.504;13.498;2023-07-30T03:37:03;15.40;99.90
40808;DHT22;26523;52.504;13.498;2023-07-30T03:39:29;15.40;99.90
40808;DHT22;26523;52.504;13.498;2023-07-30T03:41:54;15.40;99.90
40808;DHT22;26523;52.504;13.498;2023-07-30T03:44:20;15.50;99.90
40808;DHT22;26523;52.504;13.498;2023-07-30T03:46:46;15.50;99.90
40808;DHT22;26523;52.504;13.498;2023-07-30T03:49:11;15.50;99.90
40808;DHT22;26523;52.504;13.498;2023-07-30T03:51:37;15.50;99.90
40808;DHT22;26523;52.504;13.498;2023-07-30T03:54:04;15.60;99.90
40808;DHT22;26523;52.504;13.498;2023-07-30T03:56:30;15.60;99.90
40808;DHT22;26523;52.504;13.498;2023-07-30T03:58:55;15.70;99.90
40808;DHT22;26523;52.504;13.498;2023-07-30T04:01:21;15.70;99.90
40808;DHT22;26523;52.504;13.498;2023-07-30T04:03:47;15.80;99.90
40808;DHT22;26523;52.504;13.498;2023-07-30T04:06:12;15.80;99.90
40808;DHT22;26523;52.504;13.498;2023-07-30T04:08:38;15.80;99.90
40808;DHT22;26523;52.504;13.498;2023-07-30T04:11:04;15.90;99.90
40808;DHT22;26523;52.504;13.498;2023-07-30T04:13:29;15.90;99.90
40808;DHT22;26523;52.504;13.498;2023-07-30T04:15:55;16.00;99.90
40808;DHT22;26523;52.504;13.498;2023-07-30T04:18:21;16.00;99.90
40808;DHT22;26523;52.504;13.498;2023-07-30T04:20:48;16.00;99.90
40808;DHT22;26523;52.504;13.498;2023-07-30T04:23:14;16.10;99.90
40808;DHT22;26523;52.504;13.498;2023-07-30T04:25:39;16.20;99.90
40808;DHT22;26523;52.504;13.498;2023-07-30T04:28:05;16.30;99.90
40808;DHT22;26523;52.504;13.498;2023-07-30T04:30:31;16.50;99.90
40808;DHT22;26523;52.504;13.498;2023-07-30T04:32:57;16.60;99.90
40808;DHT22;26523;52.504;13.498;2023-07-30T04:35:23;16.70;99.90
40808;DHT22;26523;52.504;13.498;2023-07-30T04:37:48;16.70;99.90
40808;DHT22;26523;52.504;13.498;2023-07-30T04:40:14;16.70;99.90
40808;DHT22;26523;52.504;13.498;2023-07-30T04:42:39;16.80;99.90
40808;DHT22;26523;52.504;13.498;2023-07-30T04:45:06;16.80;99.90
40808;DHT22;26523;52.504;13.498;2023-07-30T04:47:31;16.80;99.90
40808;DHT22;26523;52.504;13.498;2023-07-30T04:49:57;16.80;99.90
40808;DHT22;26523;52.504;13.498;2023-07-30T04:52:23;16.90;99.90
40808;DHT22;26523;52.504;13.498;2023-07-30T04:54:48;17.00;99.90
40808;DHT22;26523;52.504;13.498;2023-07-30T04:57:14;17.00;99.90
40808;DHT22;26523;52.504;13.498;2023-07-30T04:59:39;17.00;99.90
40808;DHT22;26523;52.504;13.498;2023-07-30T05:02:05;17.10;99.90
40808;DHT22;26523;52.504;13.498;2023-07-30T05:04:31;17.20;99.90
40808;DHT22;26523;52.504;13.498;2023-07-30T05:06:56;17.30;99.90
40808;DHT22;26523;52.504;13.498;2023-07-30T05:09:22;17.40;99.90
40808;DHT22;26523;52.504;13.498;2023-07-30T05:11:48;17.50;99.90
40808;DHT22;26523;52.504;13.498;2023-07-30T05:14:13;17.60;99.90
40808;DHT22;26523;52.504;13.498;2023-07-30T05:16:39;17.70;99.90
40808;DHT22;26523;52.504;13.498;2023-07-30T05:19:05;17.80;99.90
40808;DHT22;26523;52.504;13.498;2023-07-30T05:21:30;17.80;99.90
40808;DHT22;26523;52.504;13.498;2023-07-30T05:23:56;17.90;99.90
40808;DHT22;26523;52.504;13.498;2023-07-30T05:26:22;18.00;99.90
40808;DHT22;26523;52.504;13.498;2023-07-30T05:28:47;18.10;99.90
40808;DHT22;26523;52.504;13.498;2023-07-30T05:31:13;18.30;99.90
40808;DHT22;26523;52.504;13.498;2023-07-30T05:33:38;18.50;99.90
40808;DHT22;26523;52.504;13.498;2023-07-30T05:36:04;18.50;99.90
40808;DHT22;26523;52.504;13.498;2023-07-30T05:38:31;18.70;99.90
40808;DHT22;26523;52.504;13.498;2023-07-30T05:40:57;18.90;99.90
40808;DHT22;26523;52.504;13.498;2023-07-30T05:43:22;19.10;99.90
40808;DHT22;26523;52.504;13.498;2023-07-30T05:45:48;19.30;99.90
40808;DHT22;26523;52.504;13.498;2023-07-30T05:48:14;19.60;99.90
40808;DHT22;26523;52.504;13.498;2023-07-30T05:50:39;19.80;99.90
40808;DHT22;26523;52.504;13.498;2023-07-30T05:53:05;20.10;99.90
40808;DHT22;26523;52.504;13.498;2023-07-30T05:55:31;20.60;99.90
40808;DHT22;26523;52.504;13.498;2023-07-30T05:57:56;21.80;99.90
40808;DHT22;26523;52.504;13.498;2023-07-30T06:00:22;23.10;99.90
40808;DHT22;26523;52.504;13.498;2023-07-30T06:02:47;23.30;99.90
40808;DHT22;26523;52.504;13.498;2023-07-30T06:05:13;23.80;99.90
40808;DHT22;26523;52.504;13.498;2023-07-30T06:07:39;24.70;99.90
40808;DHT22;26523;52.504;13.498;2023-07-30T06:10:05;25.90;99.90
40808;DHT22;26523;52.504;13.498;2023-07-30T06:12:31;26.80;99.90
40808;DHT22;26523;52.504;13.498;2023-07-30T06:14:56;27.70;99.90
40808;DHT22;26523;52.504;13.498;2023-07-30T06:17:22;28.10;99.90
40808;DHT22;26523;52.504;13.498;2023-07-30T06:19:48;28.90;99.60
40808;DHT22;26523;52.504;13.498;2023-07-30T06:22:13;29.60;97.30
40808;DHT22;26523;52.504;13.498;2023-07-30T06:24:39;30.10;96.90
40808;DHT22;26523;52.504;13.498;2023-07-30T06:27:05;30.40;95.50
40808;DHT22;26523;52.504;13.498;2023-07-30T06:29:31;30.20;94.80
40808;DHT22;26523;52.504;13.498;2023-07-30T06:31:57;29.20;95.40
40808;DHT22;26523;52.504;13.498;2023-07-30T06:34:22;28.10;97.00
40808;DHT22;26523;52.504;13.498;2023-07-30T06:36:48;27.10;97.70
40808;DHT22;26523;52.504;13.498;2023-07-30T06:39:13;26.00;99.60
40808;DHT22;26523;52.504;13.498;2023-07-30T06:41:39;25.20;99.90
40808;DHT22;26523;52.504;13.498;2023-07-30T06:44:06;24.50;99.90
40808;DHT22;26523;52.504;13.498;2023-07-30T06:46:31;24.50;99.90
40808;DHT22;26523;52.504;13.498;2023-07-30T06:48:57;25.20;99.90
40808;DHT22;26523;52.504;13.498;2023-07-30T06:51:24;25.60;99.90
40808;DHT22;26523;52.504;13.498;2023-07-30T06:53:50;25.50;99.90
40808;DHT22;26523;52.504;13.498;2023-07-30T06:56:16;25.40;99.90
40808;DHT22;26523;52.504;13.498;2023-07-30T06:58:42;25.30;99.90
40808;DHT22;26523;52.504;13.498;2023-07-30T07:01:08;24.90;99.90
40808;DHT22;26523;52.504;13.498;2023-07-30T07:03:34;24.30;99.90
40808;DHT22;26523;52.504;13.498;2023-07-30T07:05:59;23.70;99.90
40808;DHT22;26523;52.504;13.498;2023-07-30T07:08:25;23.50;99.90
40808;DHT22;26523;52.504;13.498;2023-07-30T07:10:52;23.30;99.90
40808;DHT22;26523;52.504;13.498;2023-07-30T07:13:19;23.80;99.90
40808;DHT22;26523;52.504;13.498;2023-07-30T07:15:45;25.50;99.90
40808;DHT22;26523;52.504;13.498;2023-07-30T07:18:11;27.90;99.90
40808;DHT22;26523;52.504;13.498;2023-07-30T07:20:37;29.40;98.50
40808;DHT22;26523;52.504;13.498;2023-07-30T07:23:03;30.20;96.40
40808;DHT22;26523;52.504;13.498;2023-07-30T07:25:29;31.10;94.70
40808;DHT22;26523;52.504;13.498;2023-07-30T07:27:56;31.00;93.70
40808;DHT22;26523;52.504;13.498;2023-07-30T07:30:22;30.60;94.80
40808;DHT22;26523;52.504;13.498;2023-07-30T07:32:47;31.70;93.80
40808;DHT22;26523;52.504;13.498;2023-07-30T07:35:18;32.40;91.90
40808;DHT22;26523;52.504;13.498;2023-07-30T07:37:44;32.90;91.10
40808;DHT22;26523;52.504;13.498;2023-07-30T07:40:09;33.70;89.30
40808;DHT22;26523;52.504;13.498;2023-07-30T07:42:37;35.00;86.40
40808;DHT22;26523;52.504;13.498;2023-07-30T07:45:04;35.80;82.70
40808;DHT22;26523;52.504;13.498;2023-07-30T07:47:29;36.60;80.00
40808;DHT22;26523;52.504;13.498;2023-07-30T07:49:55;37.50;77.90
40808;DHT22;26523;52.504;13.498;2023-07-30T07:52:21;36.70;76.70
40808;DHT22;26523;52.504;13.498;2023-07-30T07:54:47;36.00;78.20
40808;DHT22;26523;52.504;13.498;2023-07-30T07:57:13;35.00;79.10
40808;DHT22;26523;52.504;13.498;2023-07-30T07:59:38;34.00;79.10
40808;DHT22;26523;52.504;13.498;2023-07-30T08:02:07;33.00;81.60
40808;DHT22;26523;52.504;13.498;2023-07-30T08:04:32;33.10;81.50
40808;DHT22;26523;52.504;13.498;2023-07-30T08:06:58;33.10;81.70
40808;DHT22;26523;52.504;13.498;2023-07-30T08:09:29;33.20;81.40
40808;DHT22;26523;52.504;13.498;2023-07-30T08:11:57;32.80;82.30
40808;DHT22;26523;52.504;13.498;2023-07-30T08:14:22;32.90;82.70
40808;DHT22;26523;52.504;13.498;2023-07-30T08:16:48;33.40;81.50
40808;DHT22;26523;52.504;13.498;2023-07-30T08:19:14;33.50;81.50
40808;DHT22;26523;52.504;13.498;2023-07-30T08:21:39;33.10;82.80
40808;DHT22;26523;52.504;13.498;2023-07-30T08:24:05;33.50;81.90
40808;DHT22;26523;52.504;13.498;2023-07-30T08:26:32;33.20;81.80
40808;DHT22;26523;52.504;13.498;2023-07-30T08:28:57;32.40;82.10
40808;DHT22;26523;52.504;13.498;2023-07-30T08:31:23;31.00;84.30
40808;DHT22;26523;52.504;13.498;2023-07-30T08:33:49;30.50;86.70
40808;DHT22;26523;52.504;13.498;2023-07-30T08:36:14;30.00;87.30
40808;DHT22;26523;52.504;13.498;2023-07-30T08:38:40;29.20;88.80
40808;DHT22;26523;52.504;13.498;2023-07-30T08:41:06;28.20;89.40
40808;DHT22;26523;52.504;13.498;2023-07-30T08:43:32;28.00;90.10
40808;DHT22;26523;52.504;13.498;2023-07-30T08:45:59;27.80;90.30
40808;DHT22;26523;52.504;13.498;2023-07-30T08:48:25;27.90;90.90
40808;DHT22;26523;52.504;13.498;2023-07-30T08:50:51;27.90;90.90
40808;DHT22;26523;52.504;13.498;2023-07-30T08:53:17;28.10;90.60
40808;DHT22;26523;52.504;13.498;2023-07-30T08:55:46;28.00;90.30
40808;DHT22;26523;52.504;13.498;2023-07-30T08:58:12;27.80;90.00
40808;DHT22;26523;52.504;13.498;2023-07-30T09:00:41;27.60;90.20
40808;DHT22;26523;52.504;13.498;2023-07-30T09:03:08;27.50;90.20
40808;DHT22;26523;52.504;13.498;2023-07-30T09:05:36;27.90;90.00
40808;DHT22;26523;52.504;13.498;2023-07-30T09:08:03;28.00;90.00
40808;DHT22;26523;52.504;13.498;2023-07-30T09:10:30;27.70;89.30
40808;DHT22;26523;52.504;13.498;2023-07-30T09:12:58;27.30;90.10
40808;DHT22;26523;52.504;13.498;2023-07-30T09:15:37;27.10;90.20
40808;DHT22;26523;52.504;13.498;2023-07-30T09:18:03;27.60;89.10
40808;DHT22;26523;52.504;13.498;2023-07-30T09:20:39;28.20;88.30
40808;DHT22;26523;52.504;13.498;2023-07-30T09:23:08;28.10;87.20
40808;DHT22;26523;52.504;13.498;2023-07-30T09:25:35;27.80;87.70
40808;DHT22;26523;52.504;13.498;2023-07-30T09:28:03;27.60;88.60
40808;DHT22;26523;52.504;13.498;2023-07-30T09:30:29;27.40;88.60
40808;DHT22;26523;52.504;13.498;2023-07-30T09:32:56;27.40;88.40
40808;DHT22;26523;52.504;13.498;2023-07-30T09:35:24;28.20;88.90
40808;DHT22;26523;52.504;13.498;2023-07-30T09:38:01;30.50;83.40
40808;DHT22;26523;52.504;13.498;2023-07-30T09:40:46;31.60;79.30
40808;DHT22;26523;52.504;13.498;2023-07-30T09:43:15;31.50;78.40
40808;DHT22;26523;52.504;13.498;2023-07-30T09:45:44;30.70;79.50
40808;DHT22;26523;52.504;13.498;2023-07-30T09:48:11;29.70;81.60
40808;DHT22;26523;52.504;13.498;2023-07-30T09:50:37;28.80;80.20
40808;DHT22;26523;52.504;13.498;2023-07-30T09:53:04;28.40;82.10
40808;DHT22;26523;52.504;13.498;2023-07-30T09:55:30;27.70;82.00
40808;DHT22;26523;52.504;13.498;2023-07-30T09:57:56;27.00;83.20
40808;DHT22;26523;52.504;13.498;2023-07-30T10:00:22;26.70;83.20
40808;DHT22;26523;52.504;13.498;2023-07-30T10:02:50;26.40;84.50
40808;DHT22;26523;52.504;13.498;2023-07-30T10:05:20;26.20;85.00
40808;DHT22;26523;52.504;13.498;2023-07-30T10:08:00;26.20;87.10
40808;DHT22;26523;52.504;13.498;2023-07-30T10:10:28;26.00;86.20
40808;DHT22;26523;52.504;13.498;2023-07-30T10:12:58;25.90;86.40
40808;DHT22;26523;52.504;13.498;2023-07-30T10:15:25;25.80;86.50
40808;DHT22;26523;52.504;13.498;2023-07-30T10:17:52;25.80;87.70
40808;DHT22;26523;52.504;13.498;2023-07-30T10:20:27;25.90;87.60
40808;DHT22;26523;52.504;13.498;2023-07-30T10:22:56;25.90;87.10
40808;DHT22;26523;52.504;13.498;2023-07-30T10:28:06;26.00;86.80
40808;DHT22;26523;52.504;13.498;2023-07-30T10:30:33;26.00;87.80
40808;DHT22;26523;52.504;13.498;2023-07-30T10:33:01;25.90;88.90
40808;DHT22;26523;52.504;13.498;2023-07-30T10:35:54;26.00;89.50
40808;DHT22;26523;52.504;13.498;2023-07-30T10:38:29;25.90;89.40
40808;DHT22;26523;52.504;13.498;2023-07-30T10:41:10;25.80;88.40
40808;DHT22;26523;52.504;13.498;2023-07-30T10:43:46;25.80;88.60
40808;DHT22;26523;52.504;13.498;2023-07-30T10:46:14;25.80;84.80
40808;DHT22;26523;52.504;13.498;2023-07-30T10:48:42;25.70;85.30
40808;DHT22;26523;52.504;13.498;2023-07-30T10:51:13;25.60;86.80
40808;DHT22;26523;52.504;13.498;2023-07-30T10:53:39;25.50;87.50
40808;DHT22;26523;52.504;13.498;2023-07-30T10:56:09;25.40;86.20
40808;DHT22;26523;52.504;13.498;2023-07-30T10:58:36;25.10;86.10
40808;DHT22;26523;52.504;13.498;2023-07-30T11:01:07;25.00;86.60
40808;DHT22;26523;52.504;13.498;2023-07-30T11:03:34;24.90;87.30
40808;DHT22;26523;52.504;13.498;2023-07-30T11:06:01;24.90;87.90
40808;DHT22;26523;52.504;13.498;2023-07-30T11:08:41;24.90;89.00
40808;DHT22;26523;52.504;13.498;2023-07-30T11:11:08;24.90;88.80
40808;DHT22;26523;52.504;13.498;2023-07-30T11:13:44;24.90;89.60
40808;DHT22;26523;52.504;13.498;2023-07-30T11:16:12;25.10;88.30
40808;DHT22;26523;52.504;13.498;2023-07-30T11:18:41;25.30;87.90
40808;DHT22;26523;52.504;13.498;2023-07-30T11:21:08;25.20;88.10
40808;DHT22;26523;52.504;13.498;2023-07-30T11:23:35;25.10;86.40
40808;DHT22;26523;52.504;13.498;2023-07-30T11:26:03;25.00;85.40
40808;DHT22;26523;52.504;13.498;2023-07-30T11:30:59;24.90;85.70
40808;DHT22;26523;52.504;13.498;2023-07-30T11:33:26;25.00;86.90
40808;DHT22;26523;52.504;13.498;2023-07-30T11:35:54;25.00;85.30
40808;DHT22;26523;52.504;13.498;2023-07-30T11:38:25;24.90;86.20
40808;DHT22;26523;52.504;13.498;2023-07-30T11:40:52;24.90;85.70
40808;DHT22;26523;52.504;13.498;2023-07-30T11:43:18;25.00;84.80
40808;DHT22;26523;52.504;13.498;2023-07-30T11:45:44;25.00;83.50
40808;DHT22;26523;52.504;13.498;2023-07-30T11:48:11;25.10;82.10
40808;DHT22;26523;52.504;13.498;2023-07-30T11:50:51;25.10;82.30
40808;DHT22;26523;52.504;13.498;2023-07-30T11:53:19;24.90;84.90
40808;DHT22;26523;52.504;13.498;2023-07-30T11:55:45;25.00;84.50
40808;DHT22;26523;52.504;13.498;2023-07-30T11:58:12;25.20;83.20
40808;DHT22;26523;52.504;13.498;2023-07-30T12:00:43;25.30;85.00
40808;DHT22;26523;52.504;13.498;2023-07-30T12:03:12;25.30;84.10
40808;DHT22;26523;52.504;13.498;2023-07-30T12:05:41;25.20;83.10
40808;DHT22;26523;52.504;13.498;2023-07-30T12:08:13;25.20;84.20
40808;DHT22;26523;52.504;13.498;2023-07-30T12:10:43;25.20;86.10
40808;DHT22;26523;52.504;13.498;2023-07-30T12:13:19;25.20;85.40
40808;DHT22;26523;52.504;13.498;2023-07-30T12:15:54;25.10;85.20
40808;DHT22;26523;52.504;13.498;2023-07-30T12:18:21;25.10;84.90
40808;DHT22;26523;52.504;13.498;2023-07-30T12:20:49;25.20;83.70
40808;DHT22;26523;52.504;13.498;2023-07-30T12:23:20;25.20;82.50
40808;DHT22;26523;52.504;13.498;2023-07-30T12:25:46;25.20;83.50
40808;DHT22;26523;52.504;13.498;2023-07-30T12:28:13;25.20;84.00
40808;DHT22;26523;52.504;13.498;2023-07-30T12:30:40;25.10;83.60
40808;DHT22;26523;52.504;13.498;2023-07-30T12:33:06;25.20;83.10
40808;DHT22;26523;52.504;13.498;2023-07-30T12:35:34;25.20;82.60
40808;DHT22;26523;52.504;13.498;2023-07-30T12:38:01;25.30;85.10
40808;DHT22;26523;52.504;13.498;2023-07-30T12:40:26;25.40;85.10
40808;DHT22;26523;52.504;13.498;2023-07-30T12:42:55;25.40;85.20
40808;DHT22;26523;52.504;13.498;2023-07-30T12:45:26;25.50;84.70
40808;DHT22;26523;52.504;13.498;2023-07-30T12:47:52;25.70;84.70
40808;DHT22;26523;52.504;13.498;2023-07-30T12:50:17;25.70;83.50
40808;DHT22;26523;52.504;13.498;2023-07-30T12:52:43;25.70;82.40
40808;DHT22;26523;52.504;13.498;2023-07-30T12:55:09;25.60;82.40
40808;DHT22;26523;52.504;13.498;2023-07-30T12:57:38;25.50;82.20
40808;DHT22;26523;52.504;13.498;2023-07-30T13:00:04;25.30;83.50
40808;DHT22;26523;52.504;13.498;2023-07-30T13:02:30;25.20;84.40
40808;DHT22;26523;52.504;13.498;2023-07-30T13:04:59;25.20;85.40
40808;DHT22;26523;52.504;13.498;2023-07-30T13:07:24;25.30;85.90
40808;DHT22;26523;52.504;13.498;2023-07-30T13:10:09;25.50;85.30
40808;DHT22;26523;52.504;13.498;2023-07-30T13:12:36;25.50;84.80
40808;DHT22;26523;52.504;13.498;2023-07-30T13:15:02;25.50;82.60
40808;DHT22;26523;52.504;13.498;2023-07-30T13:17:28;25.60;82.90
40808;DHT22;26523;52.504;13.498;2023-07-30T13:19:55;25.60;83.10
40808;DHT22;26523;52.504;13.498;2023-07-30T13:22:20;25.50;84.70
40808;DHT22;26523;52.504;13.498;2023-07-30T13:24:46;25.60;83.10
40808;DHT22;26523;52.504;13.498;2023-07-30T13:27:11;25.50;83.50
40808;DHT22;26523;52.504;13.498;2023-07-30T13:29:38;25.50;82.60
40808;DHT22;26523;52.504;13.498;2023-07-30T13:32:04;25.50;84.40
40808;DHT22;26523;52.504;13.498;2023-07-30T13:34:31;25.60;81.40
40808;DHT22;26523;52.504;13.498;2023-07-30T13:36:57;25.80;80.30
40808;DHT22;26523;52.504;13.498;2023-07-30T13:39:25;25.70;80.70
40808;DHT22;26523;52.504;13.498;2023-07-30T13:41:52;25.70;82.90
40808;DHT22;26523;52.504;13.498;2023-07-30T13:44:17;25.70;81.40
40808;DHT22;26523;52.504;13.498;2023-07-30T13:46:43;25.70;81.60
40808;DHT22;26523;52.504;13.498;2023-07-30T13:49:09;25.70;82.20
40808;DHT22;26523;52.504;13.498;2023-07-30T13:51:36;25.60;81.80
40808;DHT22;26523;52.504;13.498;2023-07-30T13:54:02;25.50;81.10
40808;DHT22;26523;52.504;13.498;2023-07-30T13:56:29;25.50;80.00
40808;DHT22;26523;52.504;13.498;2023-07-30T13:58:56;25.50;80.20
40808;DHT22;26523;52.504;13.498;2023-07-30T14:01:21;25.40;80.70
40808;DHT22;26523;52.504;13.498;2023-07-30T14:03:51;25.30;79.40
40808;DHT22;26523;52.504;13.498;2023-07-30T14:06:17;25.30;78.10
40808;DHT22;26523;52.504;13.498;2023-07-30T14:08:43;25.20;78.10
40808;DHT22;26523;52.504;13.498;2023-07-30T14:11:08;25.10;77.60
40808;DHT22;26523;52.504;13.498;2023-07-30T14:13:34;24.90;78.80
40808;DHT22;26523;52.504;13.498;2023-07-30T14:15:59;24.70;79.40
40808;DHT22;26523;52.504;13.498;2023-07-30T14:18:25;24.70;78.70
40808;DHT22;26523;52.504;13.498;2023-07-30T14:20:51;24.60;79.00
40808;DHT22;26523;52.504;13.498;2023-07-30T14:23:17;24.50;78.80
40808;DHT22;26523;52.504;13.498;2023-07-30T14:25:43;24.50;80.30
40808;DHT22;26523;52.504;13.498;2023-07-30T14:28:11;24.30;80.70
40808;DHT22;26523;52.504;13.498;2023-07-30T14:30:42;24.30;81.50
40808;DHT22;26523;52.504;13.498;2023-07-30T14:33:13;24.20;83.30
40808;DHT22;26523;52.504;13.498;2023-07-30T14:35:39;24.10;84.70
40808;DHT22;26523;52.504;13.498;2023-07-30T14:38:05;24.00;85.50
40808;DHT22;26523;52.504;13.498;2023-07-30T14:40:32;23.90;86.10
40808;DHT22;26523;52.504;13.498;2023-07-30T14:42:58;23.80;86.60
40808;DHT22;26523;52.504;13.498;2023-07-30T14:45:25;23.60;87.30
40808;DHT22;26523;52.504;13.498;2023-07-30T14:47:51;23.40;89.80
40808;DHT22;26523;52.504;13.498;2023-07-30T14:50:17;23.10;90.70
40808;DHT22;26523;52.504;13.498;2023-07-30T14:52:44;22.80;92.50
40808;DHT22;26523;52.504;13.498;2023-07-30T14:55:10;22.60;93.60
40808;DHT22;26523;52.504;13.498;2023-07-30T14:57:35;22.40;93.00
40808;DHT22;26523;52.504;13.498;2023-07-30T15:00:01;22.20;93.20
40808;DHT22;26523;52.504;13.498;2023-07-30T15:02:28;22.10;93.70
40808;DHT22;26523;52.504;13.498;2023-07-30T15:04:55;22.00;93.40
40808;DHT22;26523;52.504;13.498;2023-07-30T15:07:21;21.90;93.90
40808;DHT22;26523;52.504;13.498;2023-07-30T15:09:54;21.70;95.00
40808;DHT22;26523;52.504;13.498;2023-07-30T15:12:20;21.50;95.70
40808;DHT22;26523;52.504;13.498;2023-07-30T15:14:48;21.40;97.00
40808;DHT22;26523;52.504;13.498;2023-07-30T15:17:15;21.20;98.80
40808;DHT22;26523;52.504;13.498;2023-07-30T15:19:41;21.10;98.90